sensor_id;sensor_type;location;lat;lon;timestamp;P1;durP1;ratioP1;P2;durP2;ratioP2
5121;SDS011;2563;52.242;7.956;2023-05-10T00:01:04;6.47;;;3.60;;
5121;SDS011;2563;52.242;7.956;2023-05-10T00:03:30;6.40;;;3.00;;
5121;SDS011;2563;52.242;7.956;2023-05-10T00:05:55;6.40;;;3.20;;
5121;SDS011;2563;52.242;7.956;2023-05-10T00:08:21;7.27;;;2.90;;
5121;SDS011;2563;52.242;7.956;2023-05-10T00:10:46;6.70;;;3.10;;
5121;SDS011;2563;52.242;7.956;2023-05-10T00:13:12;6.40;;;3.23;;
5121;SDS011;2563;52.242;7.956;2023-05-10T00:15:37;9.37;;;3.17;;
5121;SDS011;2563;52.242;7.956;2023-05-10T00:18:03;5.80;;;3.00;;
5121;SDS011;2563;52.242;7.956;2023-05-10T00:20:28;7.67;;;3.03;;
5121;SDS011;2563;52.242;7.956;2023-05-10T00:22:53;5.43;;;2.57;;
5121;SDS011;2563;52.242;7.956;2023-05-10T00:25:19;6.70;;;3.27;;
5121;SDS011;2563;52.242;7.956;2023-05-10T00:27:46;6.33;;;3.50;;
5121;SDS011;2563;52.242;7.956;2023-05-10T00:30:11;7.43;;;3.60;;
5121;SDS011;2563;52.242;7.956;2023-05-10T00:32:37;8.10;;;3.80;;
5121;SDS011;2563;52.242;7.956;2023-05-10T00:35:02;6.00;;;2.90;;
5121;SDS011;2563;52.242;7.956;2023-05-10T00:37:28;8.80;;;3.60;;
5121;SDS011;2563;52.242;7.956;2023-05-10T00:39:53;6.83;;;3.57;;
5121;SDS011;2563;52.242;7.956;2023-05-10T00:42:18;7.87;;;3.80;;
5121;SDS011;2563;52.242;7.956;2023-05-10T00:44:44;9.13;;;4.80;;
5121;SDS011;2563;52.242;7.956;2023-05-10T00:47:09;8.73;;;4.70;;
5121;SDS011;2563;52.242;7.956;2023-05-10T00:49:35;8.90;;;4.83;;
5121;SDS011;2563;52.242;7.956;2023-05-10T00:52:01;9.37;;;4.80;;
5121;SDS011;2563;52.242;7.956;2023-05-10T00:54:28;14.23;;;5.10;;
5121;SDS011;2563;52.242;7.956;2023-05-10T00:56:54;9.43;;;5.23;;
5121;SDS011;2563;52.242;7.956;2023-05-10T00:59:19;10.10;;;5.33;;
5121;SDS011;2563;52.242;7.956;2023-05-10T01:01:45;10.10;;;5.37;;
5121;SDS011;2563;52.242;7.956;2023-05-10T01:04:12;9.80;;;5.13;;
5121;SDS011;2563;52.242;7.956;2023-05-10T01:06:39;12.00;;;5.40;;
5121;SDS011;2563;52.242;7.956;2023-05-10T01:09:05;10.33;;;5.97;;
5121;SDS011;2563;52.242;7.956;2023-05-10T01:11:32;12.37;;;5.37;;
5121;SDS011;2563;52.242;7.956;2023-05-10T01:14:02;12.20;;;5.53;;
5121;SDS011;2563;52.242;7.956;2023-05-10T01:16:27;10.93;;;5.50;;
5121;SDS011;2563;52.242;7.956;2023-05-10T01:18:57;12.00;;;5.77;;
5121;SDS011;2563;52.242;7.956;2023-05-10T01:24:23;13.23;;;6.57;;
5121;SDS011;2563;52.242;7.956;2023-05-10T01:32:31;6.10;;;3.13;;
5121;SDS011;2563;52.242;7.956;2023-05-10T01:35:03;7.30;;;2.73;;
5121;SDS011;2563;52.242;7.956;2023-05-10T01:37:41;7.50;;;3.00;;
5121;SDS011;2563;52.242;7.956;2023-05-10T01:40:16;7.33;;;3.00;;
5121;SDS011;2563;52.242;7.956;2023-05-10T01:42:51;10.80;;;2.67;;
5121;SDS011;2563;52.242;7.956;2023-05-10T01:45:44;5.20;;;2.20;;
5121;SDS011;2563;52.242;7.956;2023-05-10T01:48:21;5.37;;;2.53;;
5121;SDS011;2563;52.242;7.956;2023-05-10T01:50:48;4.80;;;1.97;;
5121;SDS011;2563;52.242;7.956;2023-05-10T01:53:17;6.43;;;2.30;;
5121;SDS011;2563;52.242;7.956;2023-05-10T01:55:48;5.03;;;2.20;;
5121;SDS011;2563;52.242;7.956;2023-05-10T01:58:20;7.93;;;2.53;;
5121;SDS011;2563;52.242;7.956;2023-05-10T02:00:49;5.43;;;2.07;;
5121;SDS011;2563;52.242;7.956;2023-05-10T02:03:17;5.10;;;2.10;;
5121;SDS011;2563;52.242;7.956;2023-05-10T02:05:45;4.67;;;1.97;;
5121;SDS011;2563;52.242;7.956;2023-05-10T02:08:11;5.47;;;2.23;;
5121;SDS011;2563;52.242;7.956;2023-05-10T02:10:39;5.23;;;2.20;;
5121;SDS011;2563;52.242;7.956;2023-05-10T02:13:06;5.03;;;2.20;;
5121;SDS011;2563;52.242;7.956;2023-05-10T02:15:33;5.60;;;1.90;;
5121;SDS011;2563;52.242;7.956;2023-05-10T02:17:59;4.80;;;1.90;;
5121;SDS011;2563;52.242;7.956;2023-05-10T02:20:27;4.27;;;1.70;;
5121;SDS011;2563;52.242;7.956;2023-05-10T02:22:55;4.30;;;1.80;;
5121;SDS011;2563;52.242;7.956;2023-05-10T02:25:23;6.70;;;1.73;;
5121;SDS011;2563;52.242;7.956;2023-05-10T02:27:49;4.20;;;1.70;;
5121;SDS011;2563;52.242;7.956;2023-05-10T02:30:16;5.50;;;2.20;;
5121;SDS011;2563;52.242;7.956;2023-05-10T02:32:43;4.67;;;2.00;;
5121;SDS011;2563;52.242;7.956;2023-05-10T02:35:09;4.73;;;1.93;;
5121;SDS011;2563;52.242;7.956;2023-05-10T02:37:36;3.77;;;1.33;;
5121;SDS011;2563;52.242;7.956;2023-05-10T02:40:03;3.70;;;1.20;;
5121;SDS011;2563;52.242;7.956;2023-05-10T02:42:32;5.10;;;1.50;;
5121;SDS011;2563;52.242;7.956;2023-05-10T02:45:00;4.20;;;1.13;;
5121;SDS011;2563;52.242;7.956;2023-05-10T02:47:27;3.77;;;1.37;;
5121;SDS011;2563;52.242;7.956;2023-05-10T02:49:53;5.93;;;1.20;;
5121;SDS011;2563;52.242;7.956;2023-05-10T02:52:21;4.13;;;1.13;;
5121;SDS011;2563;52.242;7.956;2023-05-10T02:54:50;3.97;;;1.20;;
5121;SDS011;2563;52.242;7.956;2023-05-10T02:57:21;4.63;;;1.00;;
5121;SDS011;2563;52.242;7.956;2023-05-10T02:59:51;5.07;;;0.97;;
5121;SDS011;2563;52.242;7.956;2023-05-10T03:02:16;5.30;;;1.00;;
5121;SDS011;2563;52.242;7.956;2023-05-10T03:04:42;3.37;;;1.10;;
5121;SDS011;2563;52.242;7.956;2023-05-10T03:07:07;4.10;;;1.30;;
5121;SDS011;2563;52.242;7.956;2023-05-10T03:09:33;3.50;;;1.10;;
5121;SDS011;2563;52.242;7.956;2023-05-10T03:19:55;4.50;;;1.10;;
5121;SDS011;2563;52.242;7.956;2023-05-10T03:22:39;3.80;;;1.20;;
5121;SDS011;2563;52.242;7.956;2023-05-10T03:25:10;3.93;;;1.20;;
5121;SDS011;2563;52.242;7.956;2023-05-10T03:27:36;3.70;;;1.30;;
5121;SDS011;2563;52.242;7.956;2023-05-10T03:30:05;3.60;;;1.30;;
5121;SDS011;2563;52.242;7.956;2023-05-10T03:32:35;3.80;;;1.30;;
5121;SDS011;2563;52.242;7.956;2023-05-10T03:35:02;3.43;;;1.23;;
5121;SDS011;2563;52.242;7.956;2023-05-10T03:37:31;3.40;;;1.10;;
5121;SDS011;2563;52.242;7.956;2023-05-10T03:39:57;4.00;;;1.20;;
5121;SDS011;2563;52.242;7.956;2023-05-10T03:42:22;4.60;;;1.50;;
5121;SDS011;2563;52.242;7.956;2023-05-10T03:44:47;6.90;;;1.40;;
5121;SDS011;2563;52.242;7.956;2023-05-10T03:47:14;4.00;;;1.30;;
5121;SDS011;2563;52.242;7.956;2023-05-10T03:49:39;3.30;;;1.10;;
5121;SDS011;2563;52.242;7.956;2023-05-10T03:52:05;5.23;;;1.70;;
5121;SDS011;2563;52.242;7.956;2023-05-10T03:54:31;5.57;;;1.77;;
5121;SDS011;2563;52.242;7.956;2023-05-10T03:56:57;4.63;;;1.97;;
5121;SDS011;2563;52.242;7.956;2023-05-10T03:59:23;5.20;;;2.17;;
5121;SDS011;2563;52.242;7.956;2023-05-10T04:01:48;4.80;;;2.00;;
5121;SDS011;2563;52.242;7.956;2023-05-10T04:04:14;5.20;;;2.30;;
5121;SDS011;2563;52.242;7.956;2023-05-10T04:06:39;7.10;;;2.00;;
5121;SDS011;2563;52.242;7.956;2023-05-10T04:09:04;4.10;;;1.93;;
5121;SDS011;2563;52.242;7.956;2023-05-10T04:11:30;5.50;;;2.23;;
5121;SDS011;2563;52.242;7.956;2023-05-10T04:13:55;5.40;;;2.53;;
5121;SDS011;2563;52.242;7.956;2023-05-10T04:16:21;7.40;;;3.03;;
5121;SDS011;2563;52.242;7.956;2023-05-10T04:18:46;6.70;;;2.80;;
5121;SDS011;2563;52.242;7.956;2023-05-10T04:21:13;6.53;;;3.20;;
5121;SDS011;2563;52.242;7.956;2023-05-10T04:23:38;8.90;;;2.90;;
5121;SDS011;2563;52.242;7.956;2023-05-10T04:26:04;6.50;;;3.60;;
5121;SDS011;2563;52.242;7.956;2023-05-10T04:28:29;9.20;;;3.93;;
5121;SDS011;2563;52.242;7.956;2023-05-10T04:31:04;6.70;;;3.40;;
5121;SDS011;2563;52.242;7.956;2023-05-10T04:33:32;9.13;;;3.93;;
5121;SDS011;2563;52.242;7.956;2023-05-10T04:35:57;7.43;;;3.37;;
5121;SDS011;2563;52.242;7.956;2023-05-10T04:38:23;8.90;;;3.70;;
5121;SDS011;2563;52.242;7.956;2023-05-10T04:40:48;10.83;;;4.77;;
5121;SDS011;2563;52.242;7.956;2023-05-10T04:43:14;8.07;;;3.50;;
5121;SDS011;2563;52.242;7.956;2023-05-10T04:45:39;7.30;;;3.67;;
5121;SDS011;2563;52.242;7.956;2023-05-10T04:48:05;8.13;;;3.57;;
5121;SDS011;2563;52.242;7.956;2023-05-10T04:50:30;6.97;;;3.00;;
5121;SDS011;2563;52.242;7.956;2023-05-10T04:52:56;8.33;;;3.57;;
5121;SDS011;2563;52.242;7.956;2023-05-10T04:55:22;8.00;;;3.57;;
5121;SDS011;2563;52.242;7.956;2023-05-10T04:57:47;8.10;;;3.80;;
5121;SDS011;2563;52.242;7.956;2023-05-10T05:00:13;7.33;;;3.70;;
5121;SDS011;2563;52.242;7.956;2023-05-10T05:02:41;7.33;;;3.50;;
5121;SDS011;2563;52.242;7.956;2023-05-10T05:05:07;7.00;;;3.20;;
5121;SDS011;2563;52.242;7.956;2023-05-10T05:07:33;9.90;;;3.60;;
5121;SDS011;2563;52.242;7.956;2023-05-10T05:09:58;7.53;;;3.07;;
5121;SDS011;2563;52.242;7.956;2023-05-10T05:12:24;6.57;;;3.10;;
5121;SDS011;2563;52.242;7.956;2023-05-10T05:14:49;6.60;;;2.87;;
5121;SDS011;2563;52.242;7.956;2023-05-10T05:17:14;8.93;;;3.13;;
5121;SDS011;2563;52.242;7.956;2023-05-10T05:19:40;6.90;;;2.73;;
5121;SDS011;2563;52.242;7.956;2023-05-10T05:22:06;6.60;;;3.00;;
5121;SDS011;2563;52.242;7.956;2023-05-10T05:24:35;6.87;;;3.50;;
5121;SDS011;2563;52.242;7.956;2023-05-10T05:27:04;7.70;;;3.30;;
5121;SDS011;2563;52.242;7.956;2023-05-10T05:29:30;6.50;;;2.83;;
5121;SDS011;2563;52.242;7.956;2023-05-10T05:31:56;5.97;;;2.93;;
5121;SDS011;2563;52.242;7.956;2023-05-10T05:34:21;6.57;;;2.90;;
5121;SDS011;2563;52.242;7.956;2023-05-10T05:36:47;6.53;;;3.00;;
5121;SDS011;2563;52.242;7.956;2023-05-10T05:39:13;9.70;;;3.00;;
5121;SDS011;2563;52.242;7.956;2023-05-10T05:41:38;5.90;;;2.90;;
5121;SDS011;2563;52.242;7.956;2023-05-10T05:44:04;7.37;;;2.73;;
5121;SDS011;2563;52.242;7.956;2023-05-10T05:46:29;4.90;;;2.07;;
5121;SDS011;2563;52.242;7.956;2023-05-10T05:48:54;6.80;;;2.87;;
5121;SDS011;2563;52.242;7.956;2023-05-10T05:51:20;5.10;;;2.27;;
5121;SDS011;2563;52.242;7.956;2023-05-10T05:53:45;6.23;;;2.43;;
5121;SDS011;2563;52.242;7.956;2023-05-10T05:56:11;5.90;;;2.57;;
5121;SDS011;2563;52.242;7.956;2023-05-10T05:58:36;6.53;;;2.77;;
5121;SDS011;2563;52.242;7.956;2023-05-10T06:01:01;8.53;;;2.97;;
5121;SDS011;2563;52.242;7.956;2023-05-10T06:03:27;5.37;;;2.40;;
5121;SDS011;2563;52.242;7.956;2023-05-10T06:05:52;6.90;;;3.00;;
5121;SDS011;2563;52.242;7.956;2023-05-10T06:08:17;6.40;;;3.10;;
5121;SDS011;2563;52.242;7.956;2023-05-10T06:10:43;11.90;;;3.07;;
5121;SDS011;2563;52.242;7.956;2023-05-10T06:13:09;10.03;;;3.23;;
5121;SDS011;2563;52.242;7.956;2023-05-10T06:15:34;17.10;;;3.63;;
5121;SDS011;2563;52.242;7.956;2023-05-10T06:18:00;7.07;;;2.97;;
5121;SDS011;2563;52.242;7.956;2023-05-10T06:20:25;7.70;;;3.80;;
5121;SDS011;2563;52.242;7.956;2023-05-10T06:22:51;14.03;;;3.80;;
5121;SDS011;2563;52.242;7.956;2023-05-10T06:25:16;9.20;;;4.03;;
5121;SDS011;2563;52.242;7.956;2023-05-10T06:27:43;7.40;;;3.80;;
5121;SDS011;2563;52.242;7.956;2023-05-10T06:30:08;8.20;;;4.03;;
5121;SDS011;2563;52.242;7.956;2023-05-10T06:32:35;10.60;;;4.30;;
5121;SDS011;2563;52.242;7.956;2023-05-10T06:35:00;10.70;;;4.70;;
5121;SDS011;2563;52.242;7.956;2023-05-10T06:37:25;9.20;;;4.23;;
5121;SDS011;2563;52.242;7.956;2023-05-10T06:39:51;8.90;;;4.20;;
5121;SDS011;2563;52.242;7.956;2023-05-10T06:42:16;12.53;;;4.73;;
5121;SDS011;2563;52.242;7.956;2023-05-10T06:44:42;12.40;;;5.60;;
5121;SDS011;2563;52.242;7.956;2023-05-10T06:47:08;13.33;;;5.63;;
5121;SDS011;2563;52.242;7.956;2023-05-10T06:49:34;13.00;;;5.47;;
5121;SDS011;2563;52.242;7.956;2023-05-10T06:51:59;15.53;;;6.30;;
5121;SDS011;2563;52.242;7.956;2023-05-10T06:54:24;12.50;;;6.27;;
5121;SDS011;2563;52.242;7.956;2023-05-10T06:56:50;12.40;;;5.90;;
5121;SDS011;2563;52.242;7.956;2023-05-10T06:59:15;13.20;;;6.20;;
5121;SDS011;2563;52.242;7.956;2023-05-10T07:01:41;13.47;;;6.27;;
5121;SDS011;2563;52.242;7.956;2023-05-10T07:04:07;15.40;;;7.13;;
5121;SDS011;2563;52.242;7.956;2023-05-10T07:06:33;16.67;;;7.60;;
5121;SDS011;2563;52.242;7.956;2023-05-10T07:08:59;25.50;;;9.70;;
5121;SDS011;2563;52.242;7.956;2023-05-10T07:11:25;19.53;;;8.50;;
5121;SDS011;2563;52.242;7.956;2023-05-10T07:13:50;16.10;;;7.50;;
5121;SDS011;2563;52.242;7.956;2023-05-10T07:16:16;17.67;;;8.60;;
5121;SDS011;2563;52.242;7.956;2023-05-10T07:18:41;24.73;;;9.20;;
5121;SDS011;2563;52.242;7.956;2023-05-10T07:21:06;19.90;;;8.93;;
5121;SDS011;2563;52.242;7.956;2023-05-10T07:23:32;19.97;;;8.97;;
5121;SDS011;2563;52.242;7.956;2023-05-10T07:25:57;23.50;;;10.10;;
5121;SDS011;2563;52.242;7.956;2023-05-10T07:28:23;24.20;;;10.03;;
5121;SDS011;2563;52.242;7.956;2023-05-10T07:30:51;15.63;;;8.20;;
5121;SDS011;2563;52.242;7.956;2023-05-10T07:33:17;21.77;;;8.70;;
5121;SDS011;2563;52.242;7.956;2023-05-10T07:35:43;17.57;;;8.50;;
5121;SDS011;2563;52.242;7.956;2023-05-10T07:38:08;21.73;;;9.80;;
5121;SDS011;2563;52.242;7.956;2023-05-10T07:40:35;15.10;;;7.87;;
5121;SDS011;2563;52.242;7.956;2023-05-10T07:43:01;17.47;;;8.40;;
5121;SDS011;2563;52.242;7.956;2023-05-10T07:45:27;18.50;;;8.10;;
5121;SDS011;2563;52.242;7.956;2023-05-10T07:47:52;21.23;;;9.47;;
5121;SDS011;2563;52.242;7.956;2023-05-10T07:50:18;20.67;;;9.53;;
5121;SDS011;2563;52.242;7.956;2023-05-10T07:52:43;19.73;;;9.20;;
5121;SDS011;2563;52.242;7.956;2023-05-10T07:55:09;22.00;;;9.67;;
5121;SDS011;2563;52.242;7.956;2023-05-10T07:57:34;21.40;;;9.60;;
5121;SDS011;2563;52.242;7.956;2023-05-10T08:00:00;21.03;;;9.70;;
5121;SDS011;2563;52.242;7.956;2023-05-10T08:02:26;22.17;;;10.03;;
5121;SDS011;2563;52.242;7.956;2023-05-10T08:04:51;22.80;;;10.07;;
5121;SDS011;2563;52.242;7.956;2023-05-10T08:07:17;19.13;;;9.80;;
5121;SDS011;2563;52.242;7.956;2023-05-10T08:09:42;21.80;;;9.13;;
5121;SDS011;2563;52.242;7.956;2023-05-10T08:12:07;24.30;;;10.50;;
5121;SDS011;2563;52.242;7.956;2023-05-10T08:14:33;27.17;;;12.03;;
5121;SDS011;2563;52.242;7.956;2023-05-10T08:16:58;28.30;;;11.47;;
5121;SDS011;2563;52.242;7.956;2023-05-10T08:19:24;31.73;;;12.40;;
5121;SDS011;2563;52.242;7.956;2023-05-10T08:21:49;29.60;;;12.87;;
5121;SDS011;2563;52.242;7.956;2023-05-10T08:24:15;27.30;;;11.30;;
5121;SDS011;2563;52.242;7.956;2023-05-10T08:26:40;28.70;;;12.03;;
5121;SDS011;2563;52.242;7.956;2023-05-10T08:29:06;23.27;;;11.13;;
5121;SDS011;2563;52.242;7.956;2023-05-10T08:31:31;27.30;;;12.30;;
5121;SDS011;2563;52.242;7.956;2023-05-10T08:33:56;25.73;;;11.17;;
5121;SDS011;2563;52.242;7.956;2023-05-10T08:36:22;23.43;;;10.87;;
5121;SDS011;2563;52.242;7.956;2023-05-10T08:38:52;27.40;;;12.00;;
5121;SDS011;2563;52.242;7.956;2023-05-10T08:41:23;23.87;;;11.53;;
5121;SDS011;2563;52.242;7.956;2023-05-10T08:43:51;26.20;;;11.00;;
5121;SDS011;2563;52.242;7.956;2023-05-10T08:46:18;29.80;;;12.70;;
5121;SDS011;2563;52.242;7.956;2023-05-10T08:48:44;29.10;;;12.93;;
5121;SDS011;2563;52.242;7.956;2023-05-10T08:51:14;31.97;;;12.00;;
5121;SDS011;2563;52.242;7.956;2023-05-10T08:53:43;34.27;;;13.80;;
5121;SDS011;2563;52.242;7.956;2023-05-10T08:56:09;26.50;;;12.47;;
5121;SDS011;2563;52.242;7.956;2023-05-10T08:58:35;26.87;;;12.90;;
5121;SDS011;2563;52.242;7.956;2023-05-10T09:01:01;27.53;;;12.60;;
5121;SDS011;2563;52.242;7.956;2023-05-10T09:03:27;24.60;;;11.57;;
5121;SDS011;2563;52.242;7.956;2023-05-10T09:05:53;24.97;;;11.73;;
5121;SDS011;2563;52.242;7.956;2023-05-10T09:08:18;20.87;;;10.00;;
5121;SDS011;2563;52.242;7.956;2023-05-10T09:10:45;22.60;;;10.93;;
5121;SDS011;2563;52.242;7.956;2023-05-10T09:13:12;28.33;;;10.80;;
5121;SDS011;2563;52.242;7.956;2023-05-10T09:15:40;29.00;;;12.13;;
5121;SDS011;2563;52.242;7.956;2023-05-10T09:18:05;30.87;;;11.63;;
5121;SDS011;2563;52.242;7.956;2023-05-10T09:20:31;25.90;;;10.97;;
5121;SDS011;2563;52.242;7.956;2023-05-10T09:22:56;24.70;;;10.73;;
5121;SDS011;2563;52.242;7.956;2023-05-10T09:25:22;23.87;;;10.30;;
5121;SDS011;2563;52.242;7.956;2023-05-10T09:27:48;26.20;;;10.53;;
5121;SDS011;2563;52.242;7.956;2023-05-10T09:30:17;23.90;;;10.83;;
5121;SDS011;2563;52.242;7.956;2023-05-10T09:32:48;24.10;;;11.53;;
5121;SDS011;2563;52.242;7.956;2023-05-10T09:35:18;21.93;;;11.23;;
5121;SDS011;2563;52.242;7.956;2023-05-10T09:37:46;25.90;;;10.37;;
5121;SDS011;2563;52.242;7.956;2023-05-10T09:40:14;23.37;;;10.40;;
5121;SDS011;2563;52.242;7.956;2023-05-10T09:45:32;27.00;;;11.80;;
5121;SDS011;2563;52.242;7.956;2023-05-10T09:47:58;26.67;;;11.80;;
5121;SDS011;2563;52.242;7.956;2023-05-10T09:50:25;24.70;;;11.90;;
5121;SDS011;2563;52.242;7.956;2023-05-10T09:52:53;22.50;;;10.50;;
5121;SDS011;2563;52.242;7.956;2023-05-10T09:55:44;23.13;;;11.00;;
5121;SDS011;2563;52.242;7.956;2023-05-10T09:58:11;26.77;;;10.90;;
5121;SDS011;2563;52.242;7.956;2023-05-10T10:00:40;23.50;;;11.73;;
5121;SDS011;2563;52.242;7.956;2023-05-10T10:03:12;21.77;;;10.10;;
5121;SDS011;2563;52.242;7.956;2023-05-10T10:05:40;29.67;;;11.07;;
5121;SDS011;2563;52.242;7.956;2023-05-10T10:08:06;22.23;;;10.90;;
5121;SDS011;2563;52.242;7.956;2023-05-10T10:10:32;24.00;;;11.17;;
5121;SDS011;2563;52.242;7.956;2023-05-10T10:12:58;27.20;;;11.00;;
5121;SDS011;2563;52.242;7.956;2023-05-10T10:15:24;24.77;;;11.60;;
5121;SDS011;2563;52.242;7.956;2023-05-10T10:17:51;24.23;;;9.93;;
5121;SDS011;2563;52.242;7.956;2023-05-10T10:20:18;25.53;;;10.60;;
5121;SDS011;2563;52.242;7.956;2023-05-10T10:22:44;21.60;;;10.37;;
5121;SDS011;2563;52.242;7.956;2023-05-10T10:25:11;21.37;;;10.57;;
5121;SDS011;2563;52.242;7.956;2023-05-10T10:27:56;20.50;;;9.20;;
5121;SDS011;2563;52.242;7.956;2023-05-10T10:30:43;19.50;;;9.27;;
5121;SDS011;2563;52.242;7.956;2023-05-10T10:35:43;16.40;;;8.07;;
5121;SDS011;2563;52.242;7.956;2023-05-10T10:38:12;18.67;;;9.40;;
5121;SDS011;2563;52.242;7.956;2023-05-10T10:40:37;16.43;;;9.03;;
5121;SDS011;2563;52.242;7.956;2023-05-10T10:43:23;19.87;;;9.90;;
5121;SDS011;2563;52.242;7.956;2023-05-10T10:48:41;17.20;;;8.27;;
5121;SDS011;2563;52.242;7.956;2023-05-10T10:51:12;16.27;;;8.77;;
5121;SDS011;2563;52.242;7.956;2023-05-10T10:53:38;17.70;;;9.37;;
5121;SDS011;2563;52.242;7.956;2023-05-10T10:56:09;14.87;;;7.67;;
5121;SDS011;2563;52.242;7.956;2023-05-10T10:58:38;20.07;;;9.70;;
5121;SDS011;2563;52.242;7.956;2023-05-10T11:03:40;17.67;;;9.83;;
5121;SDS011;2563;52.242;7.956;2023-05-10T11:06:28;19.03;;;9.17;;
5121;SDS011;2563;52.242;7.956;2023-05-10T11:08:54;17.97;;;9.40;;
5121;SDS011;2563;52.242;7.956;2023-05-10T11:11:19;19.90;;;9.50;;
5121;SDS011;2563;52.242;7.956;2023-05-10T11:13:46;14.93;;;8.70;;
5121;SDS011;2563;52.242;7.956;2023-05-10T11:18:56;16.37;;;7.80;;
5121;SDS011;2563;52.242;7.956;2023-05-10T11:21:24;16.10;;;7.93;;
5121;SDS011;2563;52.242;7.956;2023-05-10T11:23:50;17.80;;;8.93;;
5121;SDS011;2563;52.242;7.956;2023-05-10T11:26:17;15.60;;;8.40;;
5121;SDS011;2563;52.242;7.956;2023-05-10T11:28:48;13.20;;;6.90;;
5121;SDS011;2563;52.242;7.956;2023-05-10T11:31:17;18.90;;;8.40;;
5121;SDS011;2563;52.242;7.956;2023-05-10T11:33:47;16.53;;;7.53;;
5121;SDS011;2563;52.242;7.956;2023-05-10T11:36:17;15.10;;;6.70;;
5121;SDS011;2563;52.242;7.956;2023-05-10T11:38:44;13.53;;;6.87;;
5121;SDS011;2563;52.242;7.956;2023-05-10T11:41:11;17.13;;;7.33;;
5121;SDS011;2563;52.242;7.956;2023-05-10T11:43:40;14.10;;;5.80;;
5121;SDS011;2563;52.242;7.956;2023-05-10T11:46:06;11.77;;;6.60;;
5121;SDS011;2563;52.242;7.956;2023-05-10T11:48:32;14.27;;;6.70;;
5121;SDS011;2563;52.242;7.956;2023-05-10T11:50:58;10.80;;;5.70;;
5121;SDS011;2563;52.242;7.956;2023-05-10T11:53:26;11.90;;;5.37;;
5121;SDS011;2563;52.242;7.956;2023-05-10T11:55:52;9.50;;;4.80;;
5121;SDS011;2563;52.242;7.956;2023-05-10T11:58:18;12.87;;;5.90;;
5121;SDS011;2563;52.242;7.956;2023-05-10T12:00:44;8.40;;;4.63;;
5121;SDS011;2563;52.242;7.956;2023-05-10T12:03:10;11.90;;;5.37;;
5121;SDS011;2563;52.242;7.956;2023-05-10T12:05:36;14.37;;;6.50;;
5121;SDS011;2563;52.242;7.956;2023-05-10T12:08:14;14.37;;;7.37;;
5121;SDS011;2563;52.242;7.956;2023-05-10T12:10:41;17.33;;;7.17;;
5121;SDS011;2563;52.242;7.956;2023-05-10T12:13:13;12.13;;;5.30;;
5121;SDS011;2563;52.242;7.956;2023-05-10T12:15:39;11.30;;;6.03;;
5121;SDS011;2563;52.242;7.956;2023-05-10T12:18:04;13.27;;;6.83;;
5121;SDS011;2563;52.242;7.956;2023-05-10T12:20:30;16.97;;;6.73;;
5121;SDS011;2563;52.242;7.956;2023-05-10T12:22:57;19.43;;;7.77;;
5121;SDS011;2563;52.242;7.956;2023-05-10T12:25:24;13.47;;;6.73;;
5121;SDS011;2563;52.242;7.956;2023-05-10T12:27:55;14.70;;;7.50;;
5121;SDS011;2563;52.242;7.956;2023-05-10T12:30:22;16.90;;;9.27;;
5121;SDS011;2563;52.242;7.956;2023-05-10T12:32:52;15.20;;;7.73;;
5121;SDS011;2563;52.242;7.956;2023-05-10T12:35:18;16.87;;;8.77;;
5121;SDS011;2563;52.242;7.956;2023-05-10T12:37:49;15.27;;;7.60;;
5121;SDS011;2563;52.242;7.956;2023-05-10T12:40:16;15.27;;;7.37;;
5121;SDS011;2563;52.242;7.956;2023-05-10T12:42:41;16.73;;;7.30;;
5121;SDS011;2563;52.242;7.956;2023-05-10T12:45:07;12.17;;;6.43;;
5121;SDS011;2563;52.242;7.956;2023-05-10T12:47:33;14.53;;;7.30;;
5121;SDS011;2563;52.242;7.956;2023-05-10T12:49:59;12.33;;;7.00;;
5121;SDS011;2563;52.242;7.956;2023-05-10T12:52:26;13.83;;;7.03;;
5121;SDS011;2563;52.242;7.956;2023-05-10T12:54:52;12.13;;;6.47;;
5121;SDS011;2563;52.242;7.956;2023-05-10T12:57:18;18.80;;;7.37;;
5121;SDS011;2563;52.242;7.956;2023-05-10T12:59:43;12.03;;;7.10;;
5121;SDS011;2563;52.242;7.956;2023-05-10T13:02:09;15.77;;;8.03;;
5121;SDS011;2563;52.242;7.956;2023-05-10T13:04:35;12.90;;;6.97;;
5121;SDS011;2563;52.242;7.956;2023-05-10T13:07:04;19.20;;;9.07;;
5121;SDS011;2563;52.242;7.956;2023-05-10T13:09:29;13.37;;;7.67;;
5121;SDS011;2563;52.242;7.956;2023-05-10T13:11:55;11.73;;;6.57;;
5121;SDS011;2563;52.242;7.956;2023-05-10T13:14:20;16.27;;;6.80;;
5121;SDS011;2563;52.242;7.956;2023-05-10T13:16:47;13.63;;;6.80;;
5121;SDS011;2563;52.242;7.956;2023-05-10T13:19:15;14.23;;;6.20;;
5121;SDS011;2563;52.242;7.956;2023-05-10T13:21:41;16.00;;;6.77;;
5121;SDS011;2563;52.242;7.956;2023-05-10T13:24:07;14.47;;;6.87;;
5121;SDS011;2563;52.242;7.956;2023-05-10T13:26:32;16.97;;;7.23;;
5121;SDS011;2563;52.242;7.956;2023-05-10T13:28:58;17.50;;;7.90;;
5121;SDS011;2563;52.242;7.956;2023-05-10T13:31:24;20.87;;;8.37;;
5121;SDS011;2563;52.242;7.956;2023-05-10T13:33:49;16.13;;;8.13;;
5121;SDS011;2563;52.242;7.956;2023-05-10T13:36:15;17.80;;;7.90;;
5121;SDS011;2563;52.242;7.956;2023-05-10T13:38:40;19.30;;;7.97;;
5121;SDS011;2563;52.242;7.956;2023-05-10T13:41:05;17.03;;;8.17;;
5121;SDS011;2563;52.242;7.956;2023-05-10T13:43:31;13.13;;;6.73;;
5121;SDS011;2563;52.242;7.956;2023-05-10T13:45:56;16.40;;;7.20;;
5121;SDS011;2563;52.242;7.956;2023-05-10T13:48:22;15.80;;;7.73;;
5121;SDS011;2563;52.242;7.956;2023-05-10T13:50:47;18.53;;;8.20;;
5121;SDS011;2563;52.242;7.956;2023-05-10T13:53:12;17.20;;;7.50;;
5121;SDS011;2563;52.242;7.956;2023-05-10T13:55:38;17.03;;;7.80;;
5121;SDS011;2563;52.242;7.956;2023-05-10T13:58:03;17.10;;;7.77;;
5121;SDS011;2563;52.242;7.956;2023-05-10T14:00:29;15.23;;;7.43;;
5121;SDS011;2563;52.242;7.956;2023-05-10T14:02:54;14.30;;;7.63;;
5121;SDS011;2563;52.242;7.956;2023-05-10T14:05:20;16.50;;;7.93;;
5121;SDS011;2563;52.242;7.956;2023-05-10T14:07:45;14.90;;;7.50;;
5121;SDS011;2563;52.242;7.956;2023-05-10T14:10:11;13.30;;;6.83;;
5121;SDS011;2563;52.242;7.956;2023-05-10T14:12:36;15.70;;;7.00;;
5121;SDS011;2563;52.242;7.956;2023-05-10T14:15:02;15.47;;;7.50;;
5121;SDS011;2563;52.242;7.956;2023-05-10T14:17:30;13.97;;;7.40;;
5121;SDS011;2563;52.242;7.956;2023-05-10T14:19:55;13.37;;;6.80;;
5121;SDS011;2563;52.242;7.956;2023-05-10T14:22:21;13.73;;;7.30;;
5121;SDS011;2563;52.242;7.956;2023-05-10T14:24:47;13.70;;;7.23;;
5121;SDS011;2563;52.242;7.956;2023-05-10T14:27:13;18.47;;;7.17;;
5121;SDS011;2563;52.242;7.956;2023-05-10T14:29:38;12.50;;;7.27;;
5121;SDS011;2563;52.242;7.956;2023-05-10T14:32:03;14.77;;;6.97;;
5121;SDS011;2563;52.242;7.956;2023-05-10T14:34:29;15.30;;;7.03;;
5121;SDS011;2563;52.242;7.956;2023-05-10T14:36:54;12.60;;;6.20;;
5121;SDS011;2563;52.242;7.956;2023-05-10T14:39:20;15.37;;;7.10;;
5121;SDS011;2563;52.242;7.956;2023-05-10T14:41:45;11.00;;;6.50;;
5121;SDS011;2563;52.242;7.956;2023-05-10T14:44:12;13.10;;;6.70;;
5121;SDS011;2563;52.242;7.956;2023-05-10T14:46:37;12.63;;;6.80;;
5121;SDS011;2563;52.242;7.956;2023-05-10T14:49:04;12.90;;;6.47;;
5121;SDS011;2563;52.242;7.956;2023-05-10T14:51:30;17.80;;;6.73;;
5121;SDS011;2563;52.242;7.956;2023-05-10T14:53:56;12.97;;;6.07;;
5121;SDS011;2563;52.242;7.956;2023-05-10T14:56:22;11.97;;;6.10;;
5121;SDS011;2563;52.242;7.956;2023-05-10T14:58:47;13.53;;;6.60;;
5121;SDS011;2563;52.242;7.956;2023-05-10T15:01:14;14.40;;;6.23;;
5121;SDS011;2563;52.242;7.956;2023-05-10T15:03:40;11.90;;;5.83;;
5121;SDS011;2563;52.242;7.956;2023-05-10T15:06:05;10.37;;;5.50;;
5121;SDS011;2563;52.242;7.956;2023-05-10T15:08:31;10.87;;;5.30;;
5121;SDS011;2563;52.242;7.956;2023-05-10T15:10:56;9.67;;;5.40;;
5121;SDS011;2563;52.242;7.956;2023-05-10T15:13:21;10.70;;;5.60;;
5121;SDS011;2563;52.242;7.956;2023-05-10T15:15:47;13.87;;;6.53;;
5121;SDS011;2563;52.242;7.956;2023-05-10T15:18:12;10.63;;;6.00;;
5121;SDS011;2563;52.242;7.956;2023-05-10T15:20:37;9.30;;;5.20;;
5121;SDS011;2563;52.242;7.956;2023-05-10T15:23:03;10.17;;;5.60;;
5121;SDS011;2563;52.242;7.956;2023-05-10T15:25:28;11.93;;;6.07;;
5121;SDS011;2563;52.242;7.956;2023-05-10T15:27:54;9.50;;;5.60;;
5121;SDS011;2563;52.242;7.956;2023-05-10T15:30:20;13.27;;;4.80;;
5121;SDS011;2563;52.242;7.956;2023-05-10T15:32:45;11.60;;;6.20;;